Time;durP1;ratioP1;P1;durP2;ratioP2;P2;SDS_P1;SDS_P2;PMS_P1;PMS_P2;Temp;Humidity;BMP_temperature;BMP_pressure;BME280_temperature;BME280_humidity;BME280_pressure;Samples;Min_cycle;Max_cycle;Signal;HPM_P1;HPM_P2
2023/08/07 00:01:06;;;;;;;;;;;19.00;72.10;;;;;;4993323;28;19917;-75
2023/08/07 00:03:31;;;;;;;;;;;19.00;72.20;;;;;;4992382;28;19910;-75
2023/08/07 00:05:57;;;;;;;;;;;19.00;72.20;;;;;;4993203;28;19910;-74
2023/08/07 00:08:22;;;;;;;;;;;19.00;72.20;;;;;;4993370;28;19937;-74
2023/08/07 00:10:48;;;;;;;;;;;19.00;72.30;;;;;;4993600;28;19937;-74
2023/08/07 00:13:13;;;;;;;;;;;19.10;72.20;;;;;;4992533;28;19918;-75
2023/08/07 00:15:39;;;;;;;;;;;19.10;72.20;;;;;;4993125;28;20289;-75
2023/08/07 00:18:04;;;;;;;;;;;19.10;72.20;;;;;;4975935;28;19918;-73
2023/08/07 00:20:30;;;;;;;;;;;19.10;72.20;;;;;;4992979;28;20350;-74
2023/08/07 00:22:55;;;;;;;;;;;19.10;72.10;;;;;;4992426;28;19914;-73
2023/08/07 00:25:21;;;;;;;;;;;19.10;72.10;;;;;;4975640;28;19914;-73
2023/08/07 00:27:46;;;;;;;;;;;19.20;72.10;;;;;;4975392;28;20021;-74
2023/08/07 00:30:12;;;;;;;;;;;19.20;72.10;;;;;;4975086;28;19945;-74
2023/08/07 00:32:37;;;;;;;;;;;19.20;72.20;;;;;;4992257;28;19925;-73
2023/08/07 00:35:04;;;;;;;;;;;19.20;72.20;;;;;;4974975;28;19913;-74
2023/08/07 00:37:30;;;;;;;;;;;19.20;72.20;;;;;;4975124;28;20320;-74
2023/08/07 00:39:55;;;;;;;;;;;19.20;72.10;;;;;;4992817;28;19949;-73
2023/08/07 00:42:21;;;;;;;;;;;19.20;72.00;;;;;;4992484;28;19914;-73
2023/08/07 00:44:46;;;;;;;;;;;19.20;72.00;;;;;;4974372;28;19918;-74
2023/08/07 00:47:11;;;;;;;;;;;19.20;72.10;;;;;;4992574;28;19921;-73
2023/08/07 00:49:37;;;;;;;;;;;19.20;72.10;;;;;;4992118;28;19929;-74
2023/08/07 00:52:03;;;;;;;;;;;19.20;72.20;;;;;;4974275;28;20000;-73
2023/08/07 00:54:29;;;;;;;;;;;19.20;72.20;;;;;;4974508;28;20034;-74
2023/08/07 00:56:55;;;;;;;;;;;19.20;72.20;;;;;;4974961;28;20146;-74
2023/08/07 00:59:21;;;;;;;;;;;19.20;72.10;;;;;;4974551;28;20453;-74
2023/08/07 01:01:46;;;;;;;;;;;19.20;72.20;;;;;;4992384;28;19910;-75
2023/08/07 01:04:12;;;;;;;;;;;19.30;72.00;;;;;;4991738;28;19941;-75
2023/08/07 01:06:37;;;;;;;;;;;19.20;72.10;;;;;;4974552;28;19910;-74
2023/08/07 01:09:03;;;;;;;;;;;19.30;72.20;;;;;;4992071;28;19925;-75
2023/08/07 01:11:39;;;;;;;;;;;19.30;72.10;;;;;;4992122;28;19920;-75
2023/08/07 01:14:10;;;;;;;;;;;19.30;72.10;;;;;;4991895;28;19918;-74
2023/08/07 01:16:37;;;;;;;;;;;19.30;72.10;;;;;;4991974;28;19937;-74
2023/08/07 01:19:04;;;;;;;;;;;19.30;72.10;;;;;;4974598;28;19918;-75
2023/08/07 01:21:31;;;;;;;;;;;19.30;72.10;;;;;;4992097;28;19917;-75
2023/08/07 01:23:57;;;;;;;;;;;19.30;72.00;;;;;;4991261;28;20024;-75
2023/08/07 01:26:22;;;;;;;;;;;19.30;72.00;;;;;;4992020;28;19949;-75
2023/08/07 01:28:54;;;;;;;;;;;19.30;72.00;;;;;;4991811;28;19956;-72
2023/08/07 01:31:22;;;;;;;;;;;19.30;72.10;;;;;;4992246;28;19925;-72
2023/08/07 01:33:58;;;;;;;;;;;19.30;71.90;;;;;;4990186;28;19910;-72
2023/08/07 01:36:26;;;;;;;;;;;19.20;71.90;;;;;;4991839;28;19910;-72
2023/08/07 01:38:52;;;;;;;;;;;19.20;71.90;;;;;;4988336;28;20005;-72
2023/08/07 01:41:18;;;;;;;;;;;19.20;71.80;;;;;;4991789;28;19913;-72
2023/08/07 01:43:43;;;;;;;;;;;19.10;71.60;;;;;;4991593;28;19910;-72
2023/08/07 01:46:10;;;;;;;;;;;19.00;71.40;;;;;;4991676;28;19914;-72
2023/08/07 01:48:35;;;;;;;;;;;18.90;71.40;;;;;;4991245;28;19928;-72
2023/08/07 01:51:01;;;;;;;;;;;18.80;71.40;;;;;;4991742;28;19917;-72
2023/08/07 01:53:26;;;;;;;;;;;18.80;71.70;;;;;;4991550;28;19910;-72
2023/08/07 01:55:51;;;;;;;;;;;18.70;71.90;;;;;;4991846;28;19921;-73
2023/08/07 01:58:17;;;;;;;;;;;18.80;72.10;;;;;;4974350;28;20031;-71
2023/08/07 02:00:42;;;;;;;;;;;18.80;72.10;;;;;;4991556;28;19914;-72
2023/08/07 02:03:08;;;;;;;;;;;18.70;72.10;;;;;;4991483;28;19920;-72
2023/08/07 02:05:33;;;;;;;;;;;18.80;72.20;;;;;;4995023;28;19922;-72
2023/08/07 02:07:59;;;;;;;;;;;18.80;72.30;;;;;;4995394;28;19916;-72
2023/08/07 02:10:25;;;;;;;;;;;18.80;72.30;;;;;;4995252;28;19925;-72
2023/08/07 02:12:50;;;;;;;;;;;18.90;72.30;;;;;;4995305;28;19919;-72
2023/08/07 02:15:16;;;;;;;;;;;18.90;72.30;;;;;;4992494;28;19917;-72
2023/08/07 02:17:42;;;;;;;;;;;18.90;72.30;;;;;;4993369;28;20001;-72
2023/08/07 02:20:08;;;;;;;;;;;19.00;72.20;;;;;;4995229;28;19917;-72
2023/08/07 02:22:33;;;;;;;;;;;19.00;72.30;;;;;;4994884;28;19917;-72
2023/08/07 02:24:59;;;;;;;;;;;19.10;72.30;;;;;;4977488;28;19949;-73
2023/08/07 02:27:24;;;;;;;;;;;19.10;72.20;;;;;;4985301;28;19909;-73
2023/08/07 02:29:50;;;;;;;;;;;19.10;72.10;;;;;;4994946;28;19922;-73
2023/08/07 02:32:16;;;;;;;;;;;19.10;72.00;;;;;;4995225;28;19914;-72
2023/08/07 02:34:41;;;;;;;;;;;19.10;72.10;;;;;;4994773;28;19917;-73
2023/08/07 02:37:07;;;;;;;;;;;19.10;72.00;;;;;;4994514;28;19910;-73
2023/08/07 02:39:32;;;;;;;;;;;19.10;72.00;;;;;;4977289;28;20324;-73
2023/08/07 02:41:58;;;;;;;;;;;19.10;72.10;;;;;;4994815;28;19910;-73
2023/08/07 02:44:23;;;;;;;;;;;19.10;72.00;;;;;;4994163;28;20013;-73
2023/08/07 02:46:49;;;;;;;;;;;19.10;71.90;;;;;;4994399;28;19914;-73
2023/08/07 02:49:14;;;;;;;;;;;19.10;71.90;;;;;;4994236;28;20336;-72
2023/08/07 02:51:40;;;;;;;;;;;19.10;72.00;;;;;;4994613;28;20322;-73
2023/08/07 02:54:05;;;;;;;;;;;19.10;72.00;;;;;;4976860;28;19922;-72
2023/08/07 02:56:32;;;;;;;;;;;19.10;71.90;;;;;;4994037;28;19909;-72
2023/08/07 02:58:59;;;;;;;;;;;19.10;71.90;;;;;;4994478;28;19925;-73
2023/08/07 03:01:24;;;;;;;;;;;19.10;72.00;;;;;;4994652;28;19960;-73
2023/08/07 03:03:50;;;;;;;;;;;19.10;71.80;;;;;;4994150;28;19992;-73
2023/08/07 03:06:15;;;;;;;;;;;19.20;71.90;;;;;;4994394;28;19914;-73
2023/08/07 03:08:42;;;;;;;;;;;19.20;72.00;;;;;;4992697;28;19910;-73
2023/08/07 03:11:07;;;;;;;;;;;19.20;71.90;;;;;;4992696;28;19918;-73
2023/08/07 03:13:33;;;;;;;;;;;19.20;72.00;;;;;;4991514;28;19921;-71
2023/08/07 03:16:02;;;;;;;;;;;19.20;71.90;;;;;;4994081;28;19914;-72
2023/08/07 03:18:28;;;;;;;;;;;19.20;71.90;;;;;;4989390;28;20315;-72
2023/08/07 03:20:54;;;;;;;;;;;19.20;72.00;;;;;;4976654;28;19925;-72
2023/08/07 03:23:19;;;;;;;;;;;19.20;72.00;;;;;;4994107;28;20365;-72
2023/08/07 03:25:45;;;;;;;;;;;19.20;72.00;;;;;;4993950;28;19925;-72
2023/08/07 03:28:10;;;;;;;;;;;19.20;72.00;;;;;;4993517;28;20024;-72
2023/08/07 03:30:37;;;;;;;;;;;19.20;72.00;;;;;;4974361;28;19926;-72
2023/08/07 03:33:03;;;;;;;;;;;19.30;72.00;;;;;;4974434;28;19915;-72
2023/08/07 03:35:28;;;;;;;;;;;19.20;72.00;;;;;;4991421;28;20306;-72
2023/08/07 03:37:54;;;;;;;;;;;19.30;71.90;;;;;;4993292;28;19928;-72
2023/08/07 03:40:19;;;;;;;;;;;19.30;72.00;;;;;;4993958;28;19914;-72
2023/08/07 03:42:45;;;;;;;;;;;19.40;72.00;;;;;;4993695;28;19928;-72
2023/08/07 03:45:10;;;;;;;;;;;19.40;71.90;;;;;;4993779;28;19914;-73
2023/08/07 03:47:36;;;;;;;;;;;19.30;72.00;;;;;;4975963;28;19965;-73
2023/08/07 03:50:01;;;;;;;;;;;19.40;71.90;;;;;;4993324;28;19999;-75
2023/08/07 03:52:27;;;;;;;;;;;19.40;71.90;;;;;;4993446;28;20404;-75
2023/08/07 03:54:52;;;;;;;;;;;19.40;71.90;;;;;;4993335;28;20027;-75
2023/08/07 03:57:18;;;;;;;;;;;19.40;71.90;;;;;;4988302;28;19914;-75
2023/08/07 03:59:43;;;;;;;;;;;19.40;71.90;;;;;;4984262;28;19918;-75
2023/08/07 04:02:09;;;;;;;;;;;19.50;71.90;;;;;;4993298;28;19910;-75
2023/08/07 04:04:34;;;;;;;;;;;19.40;71.90;;;;;;4975622;28;20384;-75
2023/08/07 04:07:00;;;;;;;;;;;19.40;71.90;;;;;;4993096;28;20424;-75
2023/08/07 04:09:25;;;;;;;;;;;19.50;71.90;;;;;;4986209;28;20501;-75
2023/08/07 04:11:51;;;;;;;;;;;19.50;72.00;;;;;;4975637;28;19972;-76
2023/08/07 04:14:16;;;;;;;;;;;19.50;72.00;;;;;;4975404;28;19917;-75
2023/08/07 04:16:42;;;;;;;;;;;19.50;72.10;;;;;;4975416;28;19957;-75
2023/08/07 04:19:07;;;;;;;;;;;19.50;72.00;;;;;;4992646;28;19925;-75
2023/08/07 04:21:33;;;;;;;;;;;19.60;71.80;;;;;;4992930;28;20328;-75
2023/08/07 04:24:00;;;;;;;;;;;19.60;72.00;;;;;;4992581;28;19928;-75
2023/08/07 04:26:25;;;;;;;;;;;19.60;72.00;;;;;;4966459;28;19971;-75
2023/08/07 04:28:51;;;;;;;;;;;19.60;72.00;;;;;;4990155;28;20327;-75
2023/08/07 04:31:16;;;;;;;;;;;19.60;71.90;;;;;;4975138;28;19917;-75
2023/08/07 04:33:42;;;;;;;;;;;19.60;71.90;;;;;;4975021;28;19918;-74
2023/08/07 04:36:07;;;;;;;;;;;19.60;71.80;;;;;;4992948;28;19917;-74
2023/08/07 04:38:33;;;;;;;;;;;19.70;71.90;;;;;;4990855;28;20285;-75
2023/08/07 04:40:58;;;;;;;;;;;19.70;72.00;;;;;;4972722;28;19910;-75
2023/08/07 04:43:24;;;;;;;;;;;19.70;72.10;;;;;;4985042;28;19953;-74
2023/08/07 04:45:49;;;;;;;;;;;19.70;72.00;;;;;;4975057;28;19918;-74
2023/08/07 04:48:15;;;;;;;;;;;19.70;71.90;;;;;;4992295;28;19918;-74
2023/08/07 04:50:41;;;;;;;;;;;19.70;71.90;;;;;;4992163;28;19928;-75
2023/08/07 04:53:07;;;;;;;;;;;19.70;72.00;;;;;;4992439;28;20321;-75
2023/08/07 04:55:32;;;;;;;;;;;19.70;71.80;;;;;;4992355;28;20645;-74
2023/08/07 04:57:58;;;;;;;;;;;19.70;71.80;;;;;;4992652;28;19910;-74
2023/08/07 05:00:24;;;;;;;;;;;19.70;71.90;;;;;;4974437;28;20009;-73
2023/08/07 05:02:49;;;;;;;;;;;19.80;71.80;;;;;;4992321;28;19910;-72
2023/08/07 05:05:15;;;;;;;;;;;19.80;71.90;;;;;;4991345;28;19926;-73
2023/08/07 05:07:41;;;;;;;;;;;19.80;72.00;;;;;;4969762;28;19961;-74
2023/08/07 05:10:07;;;;;;;;;;;19.80;71.90;;;;;;4991390;28;19918;-77
2023/08/07 05:12:33;;;;;;;;;;;19.80;71.90;;;;;;4991965;28;19914;-77
2023/08/07 05:14:58;;;;;;;;;;;19.80;72.00;;;;;;4974783;28;19914;-77
2023/08/07 05:17:24;;;;;;;;;;;19.80;71.90;;;;;;4960983;28;20017;-77
2023/08/07 05:19:49;;;;;;;;;;;19.90;71.90;;;;;;4984012;28;20045;-75
2023/08/07 05:22:15;;;;;;;;;;;19.90;71.90;;;;;;4988138;28;20401;-77
2023/08/07 05:24:40;;;;;;;;;;;19.90;72.10;;;;;;4991710;28;19925;-76
2023/08/07 05:27:08;;;;;;;;;;;20.00;72.00;;;;;;4991033;28;19952;-77
2023/08/07 05:29:34;;;;;;;;;;;20.00;72.10;;;;;;4981756;28;20384;-77
2023/08/07 05:31:59;;;;;;;;;;;20.10;72.00;;;;;;4973566;28;19917;-77
2023/08/07 05:34:25;;;;;;;;;;;20.20;72.20;;;;;;4963055;28;20436;-76
2023/08/07 05:36:50;;;;;;;;;;;20.30;72.30;;;;;;5006740;28;19946;-76
2023/08/07 05:39:16;;;;;;;;;;;20.40;72.40;;;;;;4971420;28;20376;-76
2023/08/07 05:41:41;;;;;;;;;;;20.50;72.30;;;;;;5009688;28;19914;-76
2023/08/07 05:44:07;;;;;;;;;;;20.50;72.20;;;;;;4998739;28;19933;-77
2023/08/07 05:46:32;;;;;;;;;;;20.60;72.20;;;;;;5008781;28;19917;-77
2023/08/07 05:48:58;;;;;;;;;;;20.70;72.20;;;;;;5006851;28;20429;-77
2023/08/07 05:51:23;;;;;;;;;;;20.80;72.20;;;;;;4988629;28;19921;-76
2023/08/07 05:53:49;;;;;;;;;;;20.80;71.90;;;;;;4987656;28;19964;-77
2023/08/07 05:56:14;;;;;;;;;;;20.80;71.90;;;;;;4995768;28;20396;-76
2023/08/07 05:58:40;;;;;;;;;;;20.90;71.70;;;;;;4977697;28;19914;-77
2023/08/07 06:01:05;;;;;;;;;;;20.90;71.70;;;;;;4994926;28;19948;-77
2023/08/07 06:03:32;;;;;;;;;;;21.00;71.90;;;;;;4995322;28;19913;-80
2023/08/07 06:05:58;;;;;;;;;;;21.00;72.00;;;;;;4993966;28;19918;-77
2023/08/07 06:08:23;;;;;;;;;;;21.10;71.90;;;;;;4994728;28;19921;-76
2023/08/07 06:10:49;;;;;;;;;;;21.20;71.80;;;;;;4976700;28;20004;-77
2023/08/07 06:13:14;;;;;;;;;;;21.20;71.80;;;;;;4984158;28;20417;-77
2023/08/07 06:15:40;;;;;;;;;;;21.30;71.80;;;;;;4974600;28;20060;-77
2023/08/07 06:18:05;;;;;;;;;;;21.30;71.90;;;;;;4993248;28;19917;-78
2023/08/07 06:20:30;;;;;;;;;;;21.30;71.60;;;;;;4992668;28;19918;-78
2023/08/07 06:22:56;;;;;;;;;;;21.30;71.70;;;;;;4993467;28;19921;-78
2023/08/07 06:25:21;;;;;;;;;;;21.30;71.60;;;;;;4994046;28;19918;-78
2023/08/07 06:27:47;;;;;;;;;;;21.30;71.20;;;;;;4995491;28;19914;-78
2023/08/07 06:30:13;;;;;;;;;;;21.30;71.20;;;;;;4994768;28;20354;-77
2023/08/07 06:32:39;;;;;;;;;;;21.30;71.50;;;;;;4979707;28;19917;-77
2023/08/07 06:35:05;;;;;;;;;;;21.40;71.50;;;;;;4982763;28;19961;-77
2023/08/07 06:37:30;;;;;;;;;;;21.50;71.80;;;;;;4999282;28;19961;-77
2023/08/07 06:39:56;;;;;;;;;;;21.70;71.50;;;;;;5013154;28;19985;-77
2023/08/07 06:42:22;;;;;;;;;;;21.70;71.30;;;;;;5017979;28;19926;-76
2023/08/07 06:44:47;;;;;;;;;;;21.70;71.20;;;;;;5001342;28;19932;-76
2023/08/07 06:47:13;;;;;;;;;;;21.70;70.90;;;;;;4995115;28;20348;-76
2023/08/07 06:49:38;;;;;;;;;;;21.70;71.10;;;;;;4992232;28;19925;-77
2023/08/07 06:52:04;;;;;;;;;;;21.70;71.20;;;;;;5001437;28;19949;-77
2023/08/07 06:54:29;;;;;;;;;;;21.80;71.00;;;;;;5016712;28;19922;-77
2023/08/07 06:56:55;;;;;;;;;;;21.80;71.10;;;;;;5009034;28;20375;-77
2023/08/07 06:59:20;;;;;;;;;;;21.80;70.60;;;;;;5012226;28;19966;-77
2023/08/07 07:01:46;;;;;;;;;;;21.80;71.00;;;;;;4988081;28;20044;-77
2023/08/07 07:04:12;;;;;;;;;;;21.80;70.80;;;;;;4999982;28;19926;-76
2023/08/07 07:06:37;;;;;;;;;;;21.80;70.80;;;;;;4994193;28;19914;-75
2023/08/07 07:09:03;;;;;;;;;;;21.80;70.60;;;;;;4990914;28;19925;-76
2023/08/07 07:11:28;;;;;;;;;;;21.70;70.70;;;;;;5003031;28;20354;-76
2023/08/07 07:13:54;;;;;;;;;;;21.80;71.00;;;;;;4983483;28;20037;-76
2023/08/07 07:16:21;;;;;;;;;;;21.90;71.10;;;;;;4998680;28;20394;-76
2023/08/07 07:18:50;;;;;;;;;;;22.00;71.40;;;;;;4984712;28;20287;-77
2023/08/07 07:21:16;;;;;;;;;;;22.10;71.40;;;;;;4997301;28;19918;-77
2023/08/07 07:23:41;;;;;;;;;;;22.30;71.50;;;;;;4994318;28;19961;-77
2023/08/07 07:26:07;;;;;;;;;;;22.40;71.50;;;;;;4975768;28;20255;-77
2023/08/07 07:28:32;;;;;;;;;;;22.50;71.50;;;;;;4992223;28;20009;-77
2023/08/07 07:30:58;;;;;;;;;;;22.70;71.20;;;;;;4974631;28;19922;-77
2023/08/07 07:33:23;;;;;;;;;;;22.70;71.00;;;;;;4977378;28;19909;-76
2023/08/07 07:35:49;;;;;;;;;;;22.70;71.00;;;;;;4995246;28;19925;-76
2023/08/07 07:38:15;;;;;;;;;;;22.70;71.30;;;;;;4993311;28;20023;-76
2023/08/07 07:40:40;;;;;;;;;;;22.70;71.20;;;;;;4994072;28;19952;-76
2023/08/07 07:43:07;;;;;;;;;;;22.90;70.70;;;;;;4974335;28;19972;-76
2023/08/07 07:45:37;;;;;;;;;;;23.10;71.30;;;;;;4975383;28;19925;-76
2023/08/07 07:48:03;;;;;;;;;;;23.40;71.50;;;;;;4976611;28;19910;-76
2023/08/07 07:50:28;;;;;;;;;;;23.70;71.10;;;;;;4994021;28;20377;-76
2023/08/07 07:52:54;;;;;;;;;;;23.80;71.20;;;;;;4994284;28;19973;-76
2023/08/07 07:55:19;;;;;;;;;;;24.00;71.30;;;;;;4992586;28;20384;-77
2023/08/07 07:57:45;;;;;;;;;;;24.00;71.00;;;;;;4975067;28;20012;-76
2023/08/07 08:00:12;;;;;;;;;;;23.80;70.60;;;;;;4992708;28;19917;-73
2023/08/07 08:02:39;;;;;;;;;;;23.60;70.50;;;;;;4983513;28;19918;-74
2023/08/07 08:05:05;;;;;;;;;;;23.20;70.20;;;;;;4988914;28;20404;-73
2023/08/07 08:07:32;;;;;;;;;;;22.90;70.00;;;;;;4974797;28;19914;-75
2023/08/07 08:09:57;;;;;;;;;;;22.70;70.50;;;;;;4992697;28;19922;-74
2023/08/07 08:12:22;;;;;;;;;;;22.50;71.40;;;;;;4991287;28;20281;-75
2023/08/07 08:14:48;;;;;;;;;;;22.60;73.10;;;;;;4992357;28;19990;-74
2023/08/07 08:17:13;;;;;;;;;;;23.10;74.60;;;;;;4992790;28;19910;-75
2023/08/07 08:19:39;;;;;;;;;;;23.70;76.20;;;;;;4973236;28;20017;-76
2023/08/07 08:22:04;;;;;;;;;;;24.60;76.00;;;;;;4992553;28;19914;-78
2023/08/07 08:24:31;;;;;;;;;;;25.30;75.10;;;;;;4974903;28;20366;-78
2023/08/07 08:26:57;;;;;;;;;;;25.80;73.30;;;;;;4992441;28;19910;-78
2023/08/07 08:29:22;;;;;;;;;;;26.00;72.00;;;;;;4990449;28;19940;-77
2023/08/07 08:31:48;;;;;;;;;;;25.90;71.40;;;;;;4992397;28;19975;-76
2023/08/07 08:34:13;;;;;;;;;;;25.60;70.40;;;;;;4991368;28;19968;-77
2023/08/07 08:36:38;;;;;;;;;;;25.20;69.50;;;;;;4991988;28;19910;-78
2023/08/07 08:39:04;;;;;;;;;;;24.70;69.80;;;;;;4992628;28;19918;-78
2023/08/07 08:41:31;;;;;;;;;;;24.40;69.60;;;;;;4974733;28;19910;-78
2023/08/07 08:43:57;;;;;;;;;;;24.20;71.30;;;;;;4989163;28;19941;-77
2023/08/07 08:46:24;;;;;;;;;;;24.30;73.30;;;;;;4992343;28;19959;-77
2023/08/07 08:48:56;;;;;;;;;;;24.70;73.90;;;;;;4992822;28;20390;-77
2023/08/07 08:51:22;;;;;;;;;;;25.30;72.70;;;;;;4960104;28;19922;-77
2023/08/07 08:53:49;;;;;;;;;;;25.60;72.10;;;;;;4995804;28;20294;-77
2023/08/07 08:56:15;;;;;;;;;;;25.80;71.90;;;;;;4979821;28;19914;-76
2023/08/07 08:58:41;;;;;;;;;;;26.30;73.30;;;;;;5000799;28;19937;-77
2023/08/07 09:01:07;;;;;;;;;;;26.70;71.80;;;;;;4997145;28;19913;-77
2023/08/07 09:03:32;;;;;;;;;;;26.70;69.10;;;;;;5005625;28;19910;-76
2023/08/07 09:05:59;;;;;;;;;;;26.60;69.00;;;;;;4982557;28;19981;-76
2023/08/07 09:08:26;;;;;;;;;;;26.80;71.10;;;;;;4979330;28;20464;-76
2023/08/07 09:10:52;;;;;;;;;;;27.30;73.00;;;;;;4994010;28;19926;-77
2023/08/07 09:13:17;;;;;;;;;;;27.70;70.20;;;;;;4997218;28;19914;-76
2023/08/07 09:15:47;;;;;;;;;;;27.70;69.30;;;;;;4998337;28;19926;-76
2023/08/07 09:18:13;;;;;;;;;;;27.80;73.10;;;;;;4994529;28;19949;-75
2023/08/07 09:20:39;;;;;;;;;;;28.50;74.10;;;;;;4974043;28;20016;-76
2023/08/07 09:23:05;;;;;;;;;;;29.10;75.00;;;;;;4977056;28;19976;-76
2023/08/07 09:25:31;;;;;;;;;;;29.80;74.00;;;;;;4994033;28;19918;-76
2023/08/07 09:27:57;;;;;;;;;;;30.30;72.70;;;;;;4992064;28;19917;-76
2023/08/07 09:30:26;;;;;;;;;;;30.30;68.90;;;;;;4991909;28;19961;-75
2023/08/07 09:32:51;;;;;;;;;;;29.70;63.80;;;;;;4990252;28;20381;-76
2023/08/07 09:35:20;;;;;;;;;;;28.50;61.40;;;;;;4990559;28;19918;-77
2023/08/07 09:37:47;;;;;;;;;;;27.70;62.70;;;;;;4990263;28;19917;-79
2023/08/07 09:40:15;;;;;;;;;;;27.50;66.00;;;;;;5011937;28;19960;-82
2023/08/07 09:42:40;;;;;;;;;;;27.30;65.80;;;;;;4998737;28;19906;-81
2023/08/07 09:45:19;;;;;;;;;;;27.20;63.60;;;;;;5016214;28;19925;-84
2023/08/07 09:47:44;;;;;;;;;;;26.80;64.20;;;;;;4994598;28;19914;-83
2023/08/07 09:50:15;;;;;;;;;;;26.50;63.50;;;;;;5012283;28;20025;-83
2023/08/07 09:52:41;;;;;;;;;;;26.20;65.50;;;;;;5389327;23;20032;-84
2023/08/07 09:55:07;;;;;;;;;;;26.40;66.80;;;;;;5018688;28;19934;-83
2023/08/07 09:57:33;;;;;;;;;;;26.60;64.70;;;;;;5007153;28;19917;-82
2023/08/07 09:59:59;;;;;;;;;;;26.40;64.20;;;;;;5171861;23;19909;-82
2023/08/07 10:02:25;;;;;;;;;;;26.20;64.60;;;;;;5036294;28;19923;-82
2023/08/07 10:04:52;;;;;;;;;;;26.00;65.80;;;;;;5035772;28;19902;-79
2023/08/07 10:07:18;;;;;;;;;;;25.90;65.70;;;;;;5035499;28;19906;-80
2023/08/07 10:09:45;;;;;;;;;;;25.90;67.80;;;;;;5035065;28;19921;-80
2023/08/07 10:12:11;;;;;;;;;;;26.10;68.60;;;;;;5036570;28;19923;-79
2023/08/07 10:14:37;;;;;;;;;;;26.50;70.00;;;;;;5018326;28;19976;-79
2023/08/07 10:17:03;;;;;;;;;;;26.80;68.80;;;;;;5034329;28;19901;-79
2023/08/07 10:19:29;;;;;;;;;;;27.00;67.20;;;;;;5032960;28;19997;-79
2023/08/07 10:21:54;;;;;;;;;;;27.30;67.60;;;;;;5031763;28;19913;-80
2023/08/07 10:24:21;;;;;;;;;;;27.70;68.90;;;;;;5036003;28;19973;-79
2023/08/07 10:26:48;;;;;;;;;;;28.10;67.70;;;;;;5034770;28;19957;-79
2023/08/07 10:29:16;;;;;;;;;;;28.20;65.90;;;;;;5033369;28;19996;-78
2023/08/07 10:31:43;;;;;;;;;;;28.00;60.40;;;;;;5016778;28;20475;-80
2023/08/07 10:34:09;;;;;;;;;;;27.50;62.30;;;;;;5036163;28;19917;-80
2023/08/07 10:36:35;;;;;;;;;;;27.30;64.10;;;;;;5035118;28;19956;-79
2023/08/07 10:39:11;;;;;;;;;;;27.10;63.70;;;;;;5035348;28;19918;-79
2023/08/07 10:41:44;;;;;;;;;;;26.70;61.30;;;;;;5014802;28;20415;-81
2023/08/07 10:44:19;;;;;;;;;;;25.90;61.40;;;;;;4997555;28;20008;-85
2023/08/07 10:46:55;;;;;;;;;;;25.30;62.60;;;;;;5023667;28;19960;-84
2023/08/07 10:49:31;;;;;;;;;;;24.90;63.70;;;;;;5031815;28;20296;-83
2023/08/07 10:51:57;;;;;;;;;;;24.80;66.60;;;;;;5036869;28;19925;-78
2023/08/07 10:54:23;;;;;;;;;;;25.00;67.70;;;;;;5034961;28;19917;-82
2023/08/07 10:56:52;;;;;;;;;;;25.30;67.80;;;;;;5032370;28;20407;-84
2023/08/07 10:59:18;;;;;;;;;;;25.60;68.10;;;;;;5031543;28;19925;-80
2023/08/07 11:01:43;;;;;;;;;;;25.90;68.20;;;;;;5034773;28;19912;-82
2023/08/07 11:04:10;;;;;;;;;;;26.30;66.50;;;;;;5036010;28;19912;-83
2023/08/07 11:06:37;;;;;;;;;;;26.60;65.10;;;;;;5038403;28;19913;-79
2023/08/07 11:09:04;;;;;;;;;;;26.80;63.60;;;;;;5036544;28;19917;-79
2023/08/07 11:11:39;;;;;;;;;;;27.00;59.60;;;;;;5032139;28;20022;-79
2023/08/07 11:14:09;;;;;;;;;;;27.20;61.90;;;;;;5030388;28;19905;-83
2023/08/07 11:16:34;;;;;;;;;;;27.40;61.40;;;;;;5035167;28;19921;-79
2023/08/07 11:19:00;;;;;;;;;;;27.20;58.20;;;;;;5008169;28;19918;-82
2023/08/07 11:21:25;;;;;;;;;;;26.20;56.50;;;;;;4995497;28;19917;-81
2023/08/07 11:23:51;;;;;;;;;;;25.10;56.80;;;;;;5014894;28;20296;-83
2023/08/07 11:26:17;;;;;;;;;;;24.20;58.20;;;;;;4995793;28;19910;-83
2023/08/07 11:28:42;;;;;;;;;;;23.60;59.80;;;;;;4995573;28;19917;-82
2023/08/07 11:31:08;;;;;;;;;;;23.30;62.30;;;;;;4995507;28;19923;-86
2023/08/07 11:33:35;;;;;;;;;;;23.20;64.30;;;;;;5013255;28;19921;-81
2023/08/07 11:36:01;;;;;;;;;;;23.30;65.90;;;;;;4995390;28;20324;-85
2023/08/07 11:38:30;;;;;;;;;;;23.50;66.80;;;;;;4978555;28;19918;-85
2023/08/07 11:41:00;;;;;;;;;;;23.80;68.00;;;;;;5013491;28;19914;-87
2023/08/07 11:43:29;;;;;;;;;;;24.20;69.10;;;;;;5015039;28;20352;-87
2023/08/07 11:45:58;;;;;;;;;;;24.50;68.10;;;;;;5021469;28;19910;-88
2023/08/07 11:48:28;;;;;;;;;;;24.70;66.90;;;;;;5022237;28;20012;-90
2023/08/07 11:50:54;;;;;;;;;;;25.00;67.70;;;;;;5029067;28;19976;-87
2023/08/07 11:53:26;;;;;;;;;;;25.40;67.40;;;;;;5036557;28;19917;-80
2023/08/07 11:55:55;;;;;;;;;;;25.80;67.00;;;;;;5036112;28;19922;-86
2023/08/07 11:58:21;;;;;;;;;;;26.40;65.40;;;;;;5028629;28;19956;-80
2023/08/07 12:00:47;;;;;;;;;;;26.70;64.10;;;;;;5035395;28;19921;-78
2023/08/07 12:03:27;;;;;;;;;;;27.00;62.80;;;;;;5035498;28;19902;-80
2023/08/07 12:05:55;;;;;;;;;;;27.20;62.00;;;;;;5010996;28;19951;-81
2023/08/07 12:08:20;;;;;;;;;;;27.40;61.90;;;;;;5033103;28;19984;-81
2023/08/07 12:10:50;;;;;;;;;;;27.60;61.70;;;;;;5014012;28;19921;-80
2023/08/07 12:13:16;;;;;;;;;;;27.70;60.30;;;;;;5031695;28;19921;-78
2023/08/07 12:15:42;;;;;;;;;;;27.80;59.50;;;;;;5030413;28;19928;-78
2023/08/07 12:18:07;;;;;;;;;;;28.00;61.80;;;;;;5013405;28;19944;-75
2023/08/07 12:20:33;;;;;;;;;;;28.20;59.90;;;;;;5031862;28;19913;-80
2023/08/07 12:22:58;;;;;;;;;;;28.30;60.40;;;;;;5013459;28;19917;-81
2023/08/07 12:25:24;;;;;;;;;;;28.50;58.10;;;;;;5028680;28;19924;-80
2023/08/07 12:27:49;;;;;;;;;;;28.60;58.50;;;;;;5008802;28;19917;-78
2023/08/07 12:30:15;;;;;;;;;;;28.70;57.40;;;;;;5023531;28;19929;-80
2023/08/07 12:32:40;;;;;;;;;;;28.70;53.20;;;;;;5023957;28;19917;-80
2023/08/07 12:35:08;;;;;;;;;;;28.60;55.80;;;;;;5024024;28;20407;-80
2023/08/07 12:37:34;;;;;;;;;;;28.60;56.80;;;;;;5027198;28;19985;-78
2023/08/07 12:39:59;;;;;;;;;;;28.50;51.90;;;;;;5028018;28;19917;-76
2023/08/07 12:42:25;;;;;;;;;;;28.40;55.30;;;;;;5030838;28;19914;-77
2023/08/07 12:44:50;;;;;;;;;;;28.30;55.80;;;;;;5028725;28;19926;-76
2023/08/07 12:47:16;;;;;;;;;;;28.20;53.80;;;;;;5026949;28;19914;-79
2023/08/07 12:49:41;;;;;;;;;;;27.90;52.30;;;;;;5026608;28;19917;-79
2023/08/07 12:52:07;;;;;;;;;;;27.90;54.90;;;;;;5031115;28;19913;-79
2023/08/07 12:54:32;;;;;;;;;;;28.20;55.20;;;;;;5031087;28;19977;-80
2023/08/07 12:56:58;;;;;;;;;;;28.40;55.50;;;;;;5029742;28;19973;-79
2023/08/07 12:59:23;;;;;;;;;;;28.70;53.60;;;;;;5016681;28;19917;-77
2023/08/07 13:01:49;;;;;;;;;;;28.70;52.10;;;;;;5028875;28;19921;-79
2023/08/07 13:04:15;;;;;;;;;;;28.60;51.30;;;;;;5030075;28;19925;-74
2023/08/07 13:06:41;;;;;;;;;;;28.60;49.30;;;;;;5014820;28;19945;-79
2023/08/07 13:09:06;;;;;;;;;;;28.50;49.90;;;;;;5016883;28;20296;-71
2023/08/07 13:11:32;;;;;;;;;;;28.70;52.80;;;;;;5011550;28;19933;-72
2023/08/07 13:13:57;;;;;;;;;;;28.80;52.40;;;;;;5009694;28;19971;-72
2023/08/07 13:16:23;;;;;;;;;;;28.80;51.40;;;;;;4992856;28;19924;-72
2023/08/07 13:18:48;;;;;;;;;;;28.70;50.60;;;;;;5008530;28;19913;-72
2023/08/07 13:21:14;;;;;;;;;;;28.50;49.30;;;;;;5009842;28;20296;-73
2023/08/07 13:23:39;;;;;;;;;;;28.30;49.20;;;;;;4987939;28;19917;-72
2023/08/07 13:26:05;;;;;;;;;;;28.30;48.30;;;;;;5008638;28;20222;-72
2023/08/07 13:28:30;;;;;;;;;;;28.20;48.60;;;;;;5011271;28;19909;-72
2023/08/07 13:30:58;;;;;;;;;;;28.30;50.40;;;;;;5010814;28;20376;-72
2023/08/07 13:33:23;;;;;;;;;;;28.30;47.70;;;;;;5011401;28;19913;-72
2023/08/07 13:35:49;;;;;;;;;;;28.30;46.80;;;;;;5008884;28;19921;-71
2023/08/07 13:38:16;;;;;;;;;;;28.20;47.00;;;;;;5011606;28;19956;-72
2023/08/07 13:40:43;;;;;;;;;;;28.00;47.10;;;;;;4992925;28;20024;-71
2023/08/07 13:43:09;;;;;;;;;;;27.80;45.80;;;;;;5007615;28;19913;-71
2023/08/07 13:45:35;;;;;;;;;;;27.50;46.20;;;;;;5009570;28;20304;-72
2023/08/07 13:48:01;;;;;;;;;;;27.30;48.00;;;;;;4976529;28;19976;-72
2023/08/07 13:50:27;;;;;;;;;;;27.30;47.60;;;;;;5011549;28;20455;-72
2023/08/07 13:52:53;;;;;;;;;;;27.40;48.30;;;;;;5009622;28;20004;-71
2023/08/07 13:55:18;;;;;;;;;;;27.60;48.70;;;;;;5011352;28;19929;-71
2023/08/07 13:57:44;;;;;;;;;;;27.70;48.90;;;;;;5010681;28;19918;-71
2023/08/07 14:00:10;;;;;;;;;;;27.90;46.50;;;;;;4995858;28;20477;-72
2023/08/07 14:02:36;;;;;;;;;;;27.80;47.30;;;;;;5014693;28;19914;-71
2023/08/07 14:05:02;;;;;;;;;;;27.80;44.80;;;;;;5014298;28;20067;-71
2023/08/07 14:07:27;;;;;;;;;;;27.70;43.80;;;;;;5014748;28;19913;-71
2023/08/07 14:09:53;;;;;;;;;;;27.50;45.20;;;;;;5002648;28;19918;-72